Time;durP1;ratioP1;P1;durP2;ratioP2;P2;SDS_P1;SDS_P2;PMS_P1;PMS_P2;Temp;Humidity;BMP_temperature;BMP_pressure;BME280_temperature;BME280_humidity;BME280_pressure;Samples;Min_cycle;Max_cycle;Signal;HPM_P1;HPM_P2
2022/12/14 00:01:15;;;;;;;24.60;14.00;;;-1.70;99.90;;;;;;5087880;28;20036;-74
2022/12/14 00:03:42;;;;;;;24.90;13.30;;;-1.70;99.90;;;;;;5086744;28;20039;-75
2022/12/14 00:06:29;;;;;;;21.53;12.70;;;-1.70;99.90;;;;;;5070775;28;20368;-75
2022/12/14 00:08:57;;;;;;;20.67;11.13;;;-1.70;99.90;;;;;;5087866;28;20020;-74
2022/12/14 00:11:24;;;;;;;23.57;13.57;;;-1.70;99.90;;;;;;5087820;28;20418;-74
2022/12/14 00:13:56;;;;;;;21.90;11.83;;;-1.70;99.90;;;;;;5087843;28;20031;-75
2022/12/14 00:16:23;;;;;;;22.50;11.97;;;-1.70;99.90;;;;;;5085847;28;20036;-74
2022/12/14 00:18:52;;;;;;;18.87;11.23;;;-1.70;99.90;;;;;;5089356;28;20387;-74
2022/12/14 00:21:19;;;;;;;20.20;12.37;;;-1.80;99.90;;;;;;5068021;28;20052;-75
2022/12/14 00:23:49;;;;;;;20.00;12.20;;;-1.80;99.90;;;;;;5070543;28;20047;-75
2022/12/14 00:26:23;;;;;;;23.33;13.77;;;-1.70;99.90;;;;;;5068967;28;20450;-74
2022/12/14 00:28:51;;;;;;;21.33;12.57;;;-1.70;99.90;;;;;;5071360;28;20032;-74
2022/12/14 00:31:18;;;;;;;24.27;14.37;;;-1.80;99.90;;;;;;5089206;28;20047;-74
2022/12/14 00:33:45;;;;;;;22.30;12.80;;;-1.80;99.90;;;;;;5087373;28;20051;-75
2022/12/14 00:36:11;;;;;;;20.43;12.53;;;-1.80;99.90;;;;;;5086345;28;20031;-74
2022/12/14 00:38:38;;;;;;;20.93;11.43;;;-1.80;99.90;;;;;;5087017;28;20039;-74
2022/12/14 00:41:06;;;;;;;17.00;10.23;;;-1.80;99.90;;;;;;5087772;28;20979;-75
2022/12/14 00:43:33;;;;;;;19.00;11.67;;;-1.80;99.90;;;;;;5087471;28;20471;-74
2022/12/14 00:45:59;;;;;;;17.03;10.33;;;-1.80;99.90;;;;;;5087617;28;20032;-75
2022/12/14 00:48:26;;;;;;;20.47;10.80;;;-1.80;99.90;;;;;;5085502;28;20366;-74
2022/12/14 00:50:54;;;;;;;18.00;10.27;;;-1.80;99.90;;;;;;5069737;28;20399;-74
2022/12/14 00:53:21;;;;;;;23.00;11.30;;;-1.80;99.90;;;;;;5087685;28;20047;-74
2022/12/14 00:55:48;;;;;;;15.73;8.80;;;-1.80;99.90;;;;;;5070557;28;20583;-74
2022/12/14 00:58:20;;;;;;;20.50;12.17;;;-1.80;99.90;;;;;;5068536;28;20042;-74
2022/12/14 01:00:56;;;;;;;19.50;11.07;;;-1.80;99.90;;;;;;5068811;28;20032;-74
2022/12/14 01:03:22;;;;;;;21.43;12.33;;;-1.80;99.90;;;;;;5088387;28;20106;-75
2022/12/14 01:05:49;;;;;;;18.13;11.53;;;-1.90;99.90;;;;;;5086317;28;20044;-75
2022/12/14 01:08:15;;;;;;;19.00;10.77;;;-1.90;99.90;;;;;;5084630;28;20427;-74
2022/12/14 01:10:42;;;;;;;19.43;11.00;;;-1.90;99.90;;;;;;5086666;28;20035;-75
2022/12/14 01:13:09;;;;;;;21.90;10.93;;;-1.90;99.90;;;;;;5069983;28;20031;-75
2022/12/14 01:15:36;;;;;;;23.57;12.63;;;-1.90;99.90;;;;;;5087501;28;20044;-74
2022/12/14 01:18:02;;;;;;;20.73;12.50;;;-1.90;99.90;;;;;;5077741;28;20043;-74
2022/12/14 01:20:29;;;;;;;25.90;13.73;;;-1.90;99.90;;;;;;5089628;28;20371;-74
2022/12/14 01:22:56;;;;;;;21.67;13.60;;;-2.00;99.90;;;;;;5090335;28;20047;-74
2022/12/14 01:25:23;;;;;;;20.40;12.23;;;-2.00;99.90;;;;;;5072210;28;20044;-74
2022/12/14 01:27:49;;;;;;;19.33;10.93;;;-2.00;99.90;;;;;;5084371;28;20028;-74
2022/12/14 01:30:18;;;;;;;23.07;13.30;;;-2.00;99.90;;;;;;5069244;28;20040;-74
2022/12/14 01:32:45;;;;;;;21.27;11.87;;;-2.00;99.90;;;;;;5069801;28;20043;-74
2022/12/14 01:35:11;;;;;;;17.20;10.50;;;-2.00;99.90;;;;;;5069840;28;20410;-74
2022/12/14 01:37:37;;;;;;;17.70;9.70;;;-2.00;99.90;;;;;;5067328;28;20058;-74
2022/12/14 01:40:04;;;;;;;15.97;8.33;;;-2.00;99.90;;;;;;5069372;28;20576;-74
2022/12/14 01:42:34;;;;;;;15.67;9.77;;;-2.00;99.90;;;;;;5069518;28;20035;-74
2022/12/14 01:45:00;;;;;;;16.60;9.47;;;-2.00;99.90;;;;;;5082939;28;20040;-74
2022/12/14 01:47:37;;;;;;;13.43;8.13;;;-2.00;99.90;;;;;;5065136;28;20036;-75
2022/12/14 01:50:17;;;;;;;14.63;8.80;;;-2.00;99.90;;;;;;5085181;28;20051;-75
2022/12/14 01:52:47;;;;;;;21.13;12.33;;;-2.00;99.90;;;;;;5085480;28;20032;-75
2022/12/14 01:55:26;;;;;;;16.57;9.20;;;-2.00;99.90;;;;;;5084648;28;20433;-75
2022/12/14 01:58:05;;;;;;;18.07;10.67;;;-2.00;99.90;;;;;;5083141;28;20049;-75
2022/12/14 02:00:32;;;;;;;17.90;10.70;;;-2.00;99.90;;;;;;5085616;28;20314;-75
2022/12/14 02:03:04;;;;;;;21.47;10.40;;;-2.00;99.90;;;;;;5085054;28;20410;-75
2022/12/14 02:05:33;;;;;;;16.52;10.10;;;-2.00;99.90;;;;;;5087188;28;20039;-75
2022/12/14 02:08:01;;;;;;;17.93;9.10;;;-2.00;99.90;;;;;;5083258;28;20031;-75
2022/12/14 02:10:30;;;;;;;16.67;10.13;;;-2.00;99.90;;;;;;5049451;28;20045;-75
2022/12/14 02:13:21;;;;;;;16.60;10.10;;;-2.00;99.90;;;;;;5085209;28;20084;-75
2022/12/14 02:15:47;;;;;;;15.90;9.33;;;-2.00;99.90;;;;;;5075143;28;20036;-75
2022/12/14 02:18:19;;;;;;;13.80;7.53;;;-2.10;99.90;;;;;;5085568;28;20497;-75
2022/12/14 02:21:12;;;;;;;15.90;8.57;;;-2.10;99.90;;;;;;5052534;28;20056;-75
2022/12/14 02:23:39;;;;;;;16.13;8.73;;;-2.10;99.90;;;;;;5077738;28;20093;-74
2022/12/14 02:26:05;;;;;;;15.33;8.30;;;-2.10;99.90;;;;;;5067880;28;20039;-74
2022/12/14 02:29:01;;;;;;;16.03;9.13;;;-2.10;99.90;;;;;;5085670;28;20050;-74
2022/12/14 02:31:49;;;;;;;18.20;8.87;;;-2.20;99.90;;;;;;5062673;28;20055;-74
2022/12/14 02:34:30;;;;;;;13.53;8.20;;;-2.20;99.90;;;;;;5086810;28;20043;-74
2022/12/14 02:37:14;;;;;;;15.67;7.03;;;-2.30;99.90;;;;;;5083916;28;20036;-74
2022/12/14 02:40:04;;;;;;;17.60;9.53;;;-2.30;99.90;;;;;;5086589;28;20032;-74
2022/12/14 02:42:58;;;;;;;14.23;8.40;;;-2.30;99.90;;;;;;5068685;28;20477;-74
2022/12/14 02:46:09;;;;;;;15.50;8.37;;;-2.30;99.90;;;;;;5068707;28;20040;-75
2022/12/14 02:48:40;;;;;;;11.20;6.70;;;-2.30;99.90;;;;;;5047176;28;20044;-74
2022/12/14 02:51:26;;;;;;;17.00;9.93;;;-2.40;99.90;;;;;;5085542;28;20044;-74
2022/12/14 02:54:06;;;;;;;13.53;7.77;;;-2.30;99.90;;;;;;5086636;28;20036;-74
2022/12/14 02:56:38;;;;;;;15.07;7.27;;;-2.40;99.90;;;;;;5083703;28;20040;-75
2022/12/14 02:59:07;;;;;;;12.97;7.10;;;-2.40;99.90;;;;;;5085647;28;20032;-74
2022/12/14 03:01:36;;;;;;;17.90;10.73;;;-2.30;99.90;;;;;;5052450;28;20534;-75
2022/12/14 03:04:02;;;;;;;13.27;7.10;;;-2.40;99.90;;;;;;5067407;28;20044;-75
2022/12/14 03:06:29;;;;;;;13.80;7.43;;;-2.40;99.90;;;;;;5083212;28;20043;-74
2022/12/14 03:09:07;;;;;;;16.87;8.97;;;-2.40;99.90;;;;;;5068665;28;20032;-74
2022/12/14 03:11:41;;;;;;;14.73;7.93;;;-2.40;99.90;;;;;;5068749;28;20043;-74
2022/12/14 03:14:16;;;;;;;13.67;7.50;;;-2.40;99.90;;;;;;5102271;28;20046;-75
2022/12/14 03:16:46;;;;;;;13.13;6.90;;;-2.40;99.90;;;;;;5068358;28;20043;-74
2022/12/14 03:19:27;;;;;;;13.33;7.17;;;-2.40;99.90;;;;;;5088005;28;20127;-75
2022/12/14 03:21:59;;;;;;;12.07;7.23;;;-2.40;99.90;;;;;;5088479;28;20406;-75
2022/12/14 03:24:35;;;;;;;11.00;6.70;;;-2.40;99.90;;;;;;5089008;28;20041;-75
2022/12/14 03:27:10;;;;;;;12.03;6.73;;;-2.50;99.90;;;;;;5088207;28;20266;-75
2022/12/14 03:29:51;;;;;;;12.30;6.37;;;-2.50;99.90;;;;;;5087327;28;20537;-74
2022/12/14 03:32:29;;;;;;;9.73;5.63;;;-2.50;99.90;;;;;;5089151;28;20052;-75
2022/12/14 03:35:11;;;;;;;9.97;5.67;;;-2.50;99.90;;;;;;5088722;28;20551;-75
2022/12/14 03:38:06;;;;;;;9.53;5.17;;;-2.60;99.90;;;;;;5069865;28;20040;-75
2022/12/14 03:40:48;;;;;;;9.50;5.30;;;-2.60;99.90;;;;;;5081589;28;20047;-75
2022/12/14 03:43:22;;;;;;;9.45;5.20;;;-2.60;99.90;;;;;;5089980;28;20048;-75
2022/12/14 03:46:06;;;;;;;5.93;3.23;;;-2.60;99.90;;;;;;5088943;28;20028;-74
2022/12/14 03:48:47;;;;;;;7.80;4.57;;;-2.70;99.90;;;;;;5087226;28;20047;-75
2022/12/14 03:51:43;;;;;;;8.00;4.73;;;-2.70;99.90;;;;;;5088573;28;20475;-75
2022/12/14 03:54:20;;;;;;;8.67;4.40;;;-2.70;99.90;;;;;;5088461;28;20772;-75
2022/12/14 03:56:56;;;;;;;7.90;4.33;;;-2.70;99.90;;;;;;5054151;28;20286;-75
2022/12/14 03:59:40;;;;;;;6.33;3.33;;;-2.70;99.90;;;;;;5088104;28;20032;-74
2022/12/14 04:02:20;;;;;;;11.67;6.07;;;-2.70;99.90;;;;;;5088543;28;20032;-75
2022/12/14 04:05:07;;;;;;;9.07;4.97;;;-2.80;99.90;;;;;;5088251;28;20654;-75
2022/12/14 04:08:04;;;;;;;10.90;5.80;;;-2.70;99.90;;;;;;5069345;28;20028;-74
2022/12/14 04:19:15;;;;;;;11.33;6.47;;;-2.80;99.90;;;;;;5089236;28;20036;-74
2022/12/14 04:21:55;;;;;;;12.33;7.07;;;-2.70;99.90;;;;;;5070761;28;20052;-75
2022/12/14 04:27:33;;;;;;;10.40;5.37;;;-2.70;99.90;;;;;;5067843;28;20039;-75
2022/12/14 04:30:00;;;;;;;10.33;5.10;;;-2.70;99.90;;;;;;5089217;28;20047;-75
2022/12/14 04:32:55;;;;;;;9.77;5.47;;;-2.80;99.90;;;;;;5071402;28;20032;-75
2022/12/14 04:35:35;;;;;;;10.53;4.93;;;-2.80;99.90;;;;;;5087769;28;20058;-75
2022/12/14 04:38:11;;;;;;;10.93;5.33;;;-2.80;99.90;;;;;;5067680;28;20513;-75
2022/12/14 04:40:54;;;;;;;10.87;6.27;;;-2.80;99.90;;;;;;5087369;28;20044;-75
2022/12/14 04:43:25;;;;;;;9.35;5.38;;;-2.80;99.90;;;;;;5086347;28;20494;-75
2022/12/14 04:46:13;;;;;;;11.07;6.23;;;-2.80;99.90;;;;;;5087890;28;20028;-75
2022/12/14 04:48:51;;;;;;;13.07;6.37;;;-2.80;99.90;;;;;;5069735;28;20067;-74
2022/12/14 04:51:25;;;;;;;11.53;6.40;;;-2.80;99.90;;;;;;5088862;28;20485;-75
2022/12/14 04:53:58;;;;;;;9.50;5.10;;;-2.90;99.90;;;;;;5087101;28;20720;-75
2022/12/14 04:56:30;;;;;;;11.33;5.90;;;-2.80;99.90;;;;;;5085257;28;20039;-75
2022/12/14 04:58:57;;;;;;;9.88;5.18;;;-2.90;99.90;;;;;;5070515;28;20028;-75
2022/12/14 05:02:00;;;;;;;10.43;4.90;;;-2.80;99.90;;;;;;5070162;28;20051;-75
2022/12/14 05:04:53;;;;;;;9.10;4.72;;;-2.90;99.90;;;;;;5068907;28;20062;-75
2022/12/14 05:07:29;;;;;;;7.97;4.10;;;-2.80;99.90;;;;;;5067747;28;20036;-74
2022/12/14 05:10:13;;;;;;;7.47;3.87;;;-2.90;99.90;;;;;;5086882;28;20036;-75
2022/12/14 05:12:45;;;;;;;7.80;3.37;;;-2.80;99.90;;;;;;5085592;28;20036;-75
2022/12/14 05:15:22;;;;;;;9.13;5.00;;;-2.90;99.90;;;;;;5086623;28;20028;-75
2022/12/14 05:17:48;;;;;;;9.10;4.27;;;-2.90;99.90;;;;;;5067721;28;20039;-76
2022/12/14 05:20:21;;;;;;;7.00;4.03;;;-2.90;99.90;;;;;;5069191;28;20065;-75
2022/12/14 05:22:48;;;;;;;10.63;6.18;;;-2.90;99.90;;;;;;5070532;28;20036;-75
2022/12/14 05:25:15;;;;;;;11.50;6.23;;;-2.90;99.90;;;;;;5086762;28;20539;-75
2022/12/14 05:27:41;;;;;;;10.57;4.80;;;-2.90;99.90;;;;;;5085201;28;20367;-75
2022/12/14 05:30:09;;;;;;;11.20;5.17;;;-2.90;99.90;;;;;;5069359;28;20394;-76
2022/12/14 05:32:35;;;;;;;12.63;6.20;;;-2.80;99.90;;;;;;5087093;28;20058;-75
2022/12/14 05:35:02;;;;;;;11.63;6.07;;;-2.80;99.90;;;;;;5069131;28;20036;-75
2022/12/14 05:37:28;;;;;;;11.60;5.73;;;-2.80;99.90;;;;;;5101297;28;20424;-75
2022/12/14 05:39:55;;;;;;;11.30;4.93;;;-2.90;99.90;;;;;;5085805;28;20031;-75
2022/12/14 05:42:21;;;;;;;10.70;5.63;;;-2.80;99.90;;;;;;5069689;28;20049;-75
2022/12/14 05:44:47;;;;;;;11.60;5.83;;;-2.80;99.90;;;;;;5070309;28;20036;-75
2022/12/14 05:47:14;;;;;;;8.57;4.80;;;-2.80;99.90;;;;;;5067287;28;20537;-75
2022/12/14 05:49:40;;;;;;;10.07;5.20;;;-2.80;99.90;;;;;;5069058;28;20040;-75
2022/12/14 05:52:07;;;;;;;9.57;4.53;;;-2.80;99.90;;;;;;5086626;28;20035;-75
2022/12/14 05:54:33;;;;;;;11.73;5.57;;;-2.80;99.90;;;;;;5069010;28;20048;-75
2022/12/14 05:56:59;;;;;;;9.90;5.30;;;-2.80;99.90;;;;;;5067620;28;20032;-75
2022/12/14 05:59:26;;;;;;;11.53;5.10;;;-2.80;99.90;;;;;;5086399;28;20636;-75
2022/12/14 06:01:52;;;;;;;10.37;5.20;;;-2.90;99.90;;;;;;5069169;28;20403;-75
2022/12/14 06:04:19;;;;;;;7.40;4.53;;;-2.90;99.90;;;;;;5085400;28;20035;-75
2022/12/14 06:06:46;;;;;;;13.60;6.23;;;-2.90;99.90;;;;;;5083979;28;20398;-76
2022/12/14 06:09:14;;;;;;;10.03;5.10;;;-3.00;99.90;;;;;;5068887;28;20047;-75
2022/12/14 06:11:41;;;;;;;9.90;5.37;;;-3.00;99.90;;;;;;5086177;28;20513;-76
2022/12/14 06:14:09;;;;;;;9.53;5.37;;;-3.00;99.90;;;;;;5068669;28;20367;-75
2022/12/14 06:16:38;;;;;;;8.87;5.37;;;-3.00;99.90;;;;;;5083844;28;20396;-75
2022/12/14 06:19:05;;;;;;;10.50;4.60;;;-3.10;99.90;;;;;;5102881;28;20031;-75
2022/12/14 06:21:34;;;;;;;8.80;4.60;;;-3.10;99.90;;;;;;5087135;28;20044;-76
2022/12/14 06:24:01;;;;;;;9.37;4.37;;;-3.10;99.90;;;;;;5070410;28;20486;-74
2022/12/14 06:26:31;;;;;;;9.07;4.47;;;-3.10;99.90;;;;;;5083762;28;20050;-75
2022/12/14 06:28:58;;;;;;;10.57;4.97;;;-3.20;99.90;;;;;;5103065;28;20490;-75
2022/12/14 06:31:30;;;;;;;8.17;3.83;;;-3.20;99.90;;;;;;5068432;28;20055;-76
2022/12/14 06:33:58;;;;;;;;;;;-3.20;99.90;;;;;;5069209;28;20051;-75
2022/12/14 06:36:30;;;;;;;6.60;2.53;;;-3.20;99.90;;;;;;5083660;28;19916;-75
2022/12/14 06:39:03;;;;;;;5.70;3.30;;;-3.30;99.90;;;;;;5084003;28;20044;-76
2022/12/14 06:41:29;;;;;;;6.93;3.17;;;-3.30;99.90;;;;;;5080179;28;20043;-74
2022/12/14 06:43:56;;;;;;;7.00;3.00;;;-3.40;99.90;;;;;;5081114;28;20058;-75
2022/12/14 06:46:23;;;;;;;5.73;2.70;;;-3.50;99.90;;;;;;5075741;28;20051;-77
2022/12/14 06:48:51;;;;;;;8.27;3.00;;;-3.50;99.90;;;;;;5084185;28;20040;-76
2022/12/14 06:51:18;;;;;;;4.77;2.33;;;-3.60;99.90;;;;;;5089544;28;20051;-75
2022/12/14 06:53:48;;;;;;;6.83;2.93;;;-3.60;99.90;;;;;;5072157;28;20414;-74
2022/12/14 06:56:16;;;;;;;7.20;2.70;;;-3.60;99.90;;;;;;5071020;28;20298;-74
2022/12/14 06:58:43;;;;;;;5.70;2.40;;;-3.70;99.90;;;;;;5068144;28;20039;-75
2022/12/14 07:01:15;;;;;;;4.80;1.87;;;-3.70;99.90;;;;;;5085982;28;20423;-75
2022/12/14 07:03:45;;;;;;;7.33;2.67;;;-3.80;99.90;;;;;;5088121;28;20714;-76
2022/12/14 07:06:11;;;;;;;5.73;3.17;;;-3.80;99.90;;;;;;5090430;28;20494;-76
2022/12/14 07:08:38;;;;;;;5.03;2.13;;;-3.80;99.90;;;;;;5070262;28;20044;-75
2022/12/14 07:11:08;;;;;;;7.80;2.87;;;-3.90;99.90;;;;;;5088454;28;20028;-75
2022/12/14 07:13:34;;;;;;;8.37;3.63;;;-3.90;99.90;;;;;;5088867;28;20039;-75
2022/12/14 07:16:01;;;;;;;6.77;3.67;;;-3.90;99.90;;;;;;5072417;28;20505;-75
2022/12/14 07:18:28;;;;;;;6.80;2.93;;;-4.00;99.90;;;;;;5069134;28;20032;-75
2022/12/14 07:21:02;;;;;;;6.37;2.83;;;-4.00;99.90;;;;;;5071017;28;20044;-75
2022/12/14 07:23:30;;;;;;;6.00;2.80;;;-4.10;99.90;;;;;;5088535;28;20769;-75
2022/12/14 07:26:05;;;;;;;6.47;2.70;;;-4.10;99.90;;;;;;5089163;28;20036;-75
2022/12/14 07:28:32;;;;;;;6.67;3.20;;;-4.10;99.90;;;;;;5086998;28;20047;-75
2022/12/14 07:30:59;;;;;;;5.37;2.33;;;-4.20;99.90;;;;;;5072513;28;20043;-75
2022/12/14 07:33:26;;;;;;;7.30;3.07;;;-4.20;99.90;;;;;;5088571;28;20051;-76
2022/12/14 07:36:07;;;;;;;8.00;3.50;;;-4.30;99.90;;;;;;5071142;28;20122;-74
2022/12/14 07:38:35;;;;;;;5.67;2.87;;;-4.30;99.90;;;;;;5087554;28;20039;-75
2022/12/14 07:41:26;;;;;;;8.77;4.40;;;-4.30;99.90;;;;;;5087087;28;20044;-76
2022/12/14 07:43:54;;;;;;;8.10;3.97;;;-4.30;99.90;;;;;;5070999;28;20451;-74
2022/12/14 07:46:23;;;;;;;10.90;5.13;;;-4.40;99.90;;;;;;5085828;28;20028;-74
2022/12/14 07:48:52;;;;;;;12.03;5.30;;;-4.40;99.90;;;;;;5050694;28;20036;-73
2022/12/14 07:51:22;;;;;;;7.63;3.80;;;-4.40;99.90;;;;;;5085812;28;20032;-74
2022/12/14 07:53:49;;;;;;;6.90;3.20;;;-4.40;99.90;;;;;;5088340;28;20141;-74
2022/12/14 07:56:24;;;;;;;5.93;2.87;;;-4.50;99.90;;;;;;5067489;28;20028;-74
2022/12/14 07:58:53;;;;;;;6.63;3.20;;;-4.50;99.90;;;;;;5085311;28;20028;-74
2022/12/14 08:01:29;;;;;;;7.97;3.73;;;-4.50;99.90;;;;;;5084252;28;20054;-75
2022/12/14 08:03:56;;;;;;;9.17;3.83;;;-4.50;99.90;;;;;;5068042;28;20032;-74
2022/12/14 08:06:25;;;;;;;14.47;7.47;;;-4.60;99.90;;;;;;5068156;28;20506;-73
2022/12/14 08:08:52;;;;;;;11.40;4.57;;;-4.60;99.90;;;;;;5086108;28;20031;-75
2022/12/14 08:11:21;;;;;;;12.73;5.80;;;-4.60;99.90;;;;;;5086224;28;20562;-74
2022/12/14 08:13:52;;;;;;;18.20;8.63;;;-4.60;99.90;;;;;;5087292;28;20043;-74
2022/12/14 08:16:18;;;;;;;25.83;13.93;;;-4.60;99.90;;;;;;5083540;28;20036;-72
2022/12/14 08:18:44;;;;;;;36.17;18.40;;;-4.60;99.90;;;;;;5086173;28;20024;-73
2022/12/14 08:21:13;;;;;;;29.80;13.90;;;-4.60;99.90;;;;;;5086310;28;20044;-74
2022/12/14 08:23:40;;;;;;;21.43;9.83;;;-4.60;99.90;;;;;;5068555;28;21015;-73
2022/12/14 08:26:06;;;;;;;16.63;8.17;;;-4.60;99.90;;;;;;5087598;28;20040;-74
2022/12/14 08:28:34;;;;;;;14.33;7.00;;;-4.60;99.90;;;;;;5063160;28;20040;-75
2022/12/14 08:31:18;;;;;;;14.07;6.37;;;-4.60;99.90;;;;;;5069846;28;20199;-76
2022/12/14 08:33:45;;;;;;;11.40;5.63;;;-4.60;99.90;;;;;;5084220;28;20052;-75
2022/12/14 08:36:14;;;;;;;16.40;8.17;;;-4.70;99.90;;;;;;5085159;28;20028;-75
2022/12/14 08:38:41;;;;;;;11.37;5.80;;;-4.60;99.90;;;;;;5086631;28;20043;-75
2022/12/14 08:41:12;;;;;;;10.80;4.77;;;-4.60;99.90;;;;;;5069543;28;20409;-75
2022/12/14 08:43:39;;;;;;;8.80;3.77;;;-4.60;99.90;;;;;;5086938;28;20521;-74
2022/12/14 08:46:07;;;;;;;9.27;4.40;;;-4.60;99.90;;;;;;5068708;28;20032;-74
2022/12/14 08:48:34;;;;;;;9.90;4.37;;;-4.60;99.90;;;;;;5068892;28;20040;-75
2022/12/14 08:51:02;;;;;;;10.10;4.33;;;-4.60;99.90;;;;;;5069143;28;20506;-74
2022/12/14 08:53:29;;;;;;;10.80;5.37;;;-4.60;99.90;;;;;;5087064;28;20475;-75
2022/12/14 08:55:55;;;;;;;16.20;8.00;;;-4.50;99.90;;;;;;5068765;28;20043;-74
2022/12/14 08:58:21;;;;;;;17.83;8.67;;;-4.50;99.90;;;;;;5085883;28;20517;-74
2022/12/14 09:00:48;;;;;;;17.80;8.47;;;-4.40;99.90;;;;;;5086251;28;20503;-74
2022/12/14 09:03:15;;;;;;;17.13;7.97;;;-4.30;99.90;;;;;;5066687;28;20032;-74
2022/12/14 09:05:41;;;;;;;18.27;8.60;;;-4.30;99.90;;;;;;5066731;28;20039;-74
2022/12/14 09:08:08;;;;;;;16.27;7.53;;;-4.20;99.90;;;;;;5065946;28;20036;-74
2022/12/14 09:10:34;;;;;;;16.00;6.63;;;-4.10;99.90;;;;;;5084536;28;20028;-74
2022/12/14 09:13:00;;;;;;;14.00;7.30;;;-4.10;99.90;;;;;;5083910;28;20040;-74
2022/12/14 09:15:27;;;;;;;15.50;7.37;;;-4.00;99.90;;;;;;5083811;28;20036;-74
2022/12/14 09:17:53;;;;;;;15.47;7.10;;;-3.90;99.90;;;;;;5055878;28;20036;-74
2022/12/14 09:20:20;;;;;;;12.57;5.83;;;-3.90;99.90;;;;;;5082834;28;20075;-74
2022/12/14 09:22:46;;;;;;;14.10;6.40;;;-3.80;99.90;;;;;;5066639;28;20036;-74
2022/12/14 09:25:12;;;;;;;18.37;10.07;;;-3.80;99.90;;;;;;5080601;28;20040;-75
2022/12/14 09:27:38;;;;;;;15.10;7.67;;;-3.70;99.90;;;;;;5081641;28;20054;-74
2022/12/14 09:30:05;;;;;;;12.10;6.17;;;-3.60;99.90;;;;;;5086094;28;20043;-74
2022/12/14 09:32:31;;;;;;;12.47;6.47;;;-3.50;99.90;;;;;;5068667;28;20036;-74
2022/12/14 09:34:58;;;;;;;11.73;5.83;;;-3.40;99.90;;;;;;5052322;28;20044;-74
2022/12/14 09:37:24;;;;;;;13.87;7.13;;;-3.40;99.90;;;;;;5083759;28;20036;-74
2022/12/14 09:39:51;;;;;;;17.67;8.47;;;-3.30;99.90;;;;;;5069324;28;20035;-74
2022/12/14 09:42:38;;;;;;;15.13;7.97;;;-3.20;99.90;;;;;;5085732;28;20036;-74
2022/12/14 09:45:16;;;;;;;15.40;7.87;;;-3.00;99.90;;;;;;5084573;28;20044;-74
2022/12/14 09:47:49;;;;;;;16.20;8.60;;;-2.80;99.90;;;;;;5083873;28;20048;-74
2022/12/14 09:50:18;;;;;;;14.47;7.30;;;-2.50;99.90;;;;;;5086956;28;20031;-75
2022/12/14 09:52:58;;;;;;;15.73;8.43;;;-2.20;99.90;;;;;;5073818;28;20037;-74
2022/12/14 09:55:31;;;;;;;16.67;8.33;;;-1.90;99.90;;;;;;5102437;28;20040;-73
2022/12/14 09:58:09;;;;;;;18.33;8.93;;;-1.50;99.90;;;;;;5083996;28;20426;-74
2022/12/14 10:00:48;;;;;;;24.40;11.63;;;-1.20;99.90;;;;;;5069725;28;20497;-73
2022/12/14 10:03:52;;;;;;;62.77;23.10;;;-0.80;99.90;;;;;;5086457;28;20593;-73
2022/12/14 10:06:50;;;;;;;44.53;20.33;;;-0.40;99.90;;;;;;5083886;28;20036;-73
2022/12/14 10:09:58;;;;;;;36.97;18.80;;;0.10;99.90;;;;;;5085033;28;20039;-74
2022/12/14 10:13:07;;;;;;;23.30;12.73;;;0.50;99.90;;;;;;5081157;28;20044;-74
2022/12/14 10:16:11;;;;;;;13.95;8.02;;;1.00;99.90;;;;;;5086564;28;20039;-73
2022/12/14 10:18:37;;;;;;;13.88;8.65;;;1.40;99.90;;;;;;5085969;28;20467;-73
2022/12/14 10:21:13;;;;;;;14.35;7.65;;;1.80;99.90;;;;;;5085100;28;20522;-74
2022/12/14 10:24:14;;;;;;;13.80;8.23;;;2.00;99.90;;;;;;5084639;28;20036;-74
2022/12/14 10:26:46;;;;;;;12.45;7.75;;;1.90;99.90;;;;;;5048688;28;20078;-73
2022/12/14 10:29:24;;;;;;;14.43;8.93;;;1.70;99.90;;;;;;5085154;28;20032;-73
2022/12/14 10:32:15;;;;;;;15.73;9.70;;;1.40;99.90;;;;;;5068211;28;20406;-73
2022/12/14 10:34:44;;;;;;;15.13;9.17;;;1.10;99.90;;;;;;5064864;28;20399;-73
2022/12/14 10:37:33;;;;;;;15.43;9.60;;;0.70;99.90;;;;;;5066016;28;20426;-74
2022/12/14 10:40:08;;;;;;;14.67;8.73;;;0.40;99.90;;;;;;5084886;28;20036;-74
2022/12/14 10:42:43;;;;;;;18.47;10.97;;;0.20;99.90;;;;;;5068435;28;20028;-74
2022/12/14 10:45:24;;;;;;;15.33;8.97;;;0.00;99.90;;;;;;5063127;28;20043;-74
2022/12/14 10:47:56;;;;;;;14.97;8.27;;;-0.20;99.90;;;;;;5082734;28;20044;-74
2022/12/14 10:50:39;;;;;;;13.90;7.85;;;-0.30;99.90;;;;;;5068226;28;20039;-74
2022/12/14 10:53:16;;;;;;;13.90;8.18;;;-0.40;99.90;;;;;;5084931;28;20497;-74
2022/12/14 10:55:43;;;;;;;15.27;8.37;;;-0.50;99.90;;;;;;5068614;28;20044;-74
2022/12/14 10:58:10;;;;;;;18.63;10.60;;;-0.60;99.90;;;;;;5082832;28;20039;-75
2022/12/14 11:00:37;;;;;;;15.07;9.40;;;-0.70;99.90;;;;;;5084794;28;20028;-75
2022/12/14 11:03:12;;;;;;;13.63;7.90;;;-0.80;99.90;;;;;;5068540;28;20040;-75
2022/12/14 11:06:12;;;;;;;16.13;8.63;;;-0.80;99.90;;;;;;5051160;28;20036;-73
2022/12/14 11:08:45;;;;;;;26.47;14.80;;;-0.90;99.90;;;;;;5065669;28;20040;-73
2022/12/14 11:11:20;;;;;;;21.10;10.90;;;-0.90;99.90;;;;;;5083925;28;20491;-73
2022/12/14 11:14:06;;;;;;;19.77;11.20;;;-0.90;99.90;;;;;;5066806;28;20039;-74
2022/12/14 11:16:39;;;;;;;17.97;9.30;;;-0.90;99.90;;;;;;5065462;28;20421;-74
2022/12/14 11:19:32;;;;;;;16.73;8.93;;;-1.00;99.90;;;;;;5068297;28;20032;-74
2022/12/14 11:22:13;;;;;;;16.88;9.70;;;-1.00;99.90;;;;;;5049537;28;20063;-72
2022/12/14 11:24:45;;;;;;;25.60;11.83;;;-1.00;99.90;;;;;;5067812;28;20386;-74
2022/12/14 11:27:16;;;;;;;21.20;10.77;;;-1.00;99.90;;;;;;5083975;28;20035;-74
2022/12/14 11:29:46;;;;;;;18.83;9.57;;;-1.00;99.90;;;;;;5086047;28;20036;-74
2022/12/14 11:32:22;;;;;;;18.43;9.87;;;-1.00;99.90;;;;;;5067546;28;20040;-74
2022/12/14 11:34:56;;;;;;;14.43;8.77;;;-1.00;99.90;;;;;;5084911;28;20429;-74
2022/12/14 11:37:28;;;;;;;13.40;8.10;;;-0.90;99.90;;;;;;5068833;28;20047;-74
2022/12/14 11:40:04;;;;;;;16.58;9.25;;;-0.90;99.90;;;;;;5087090;28;20489;-74
2022/12/14 11:42:32;;;;;;;15.60;8.63;;;-0.90;99.90;;;;;;5070287;28;20046;-74
2022/12/14 11:45:25;;;;;;;15.77;8.10;;;-0.90;99.90;;;;;;5087762;28;20032;-74
2022/12/14 11:48:23;;;;;;;11.10;6.32;;;-0.80;99.90;;;;;;5068986;28;20438;-74
2022/12/14 11:50:52;;;;;;;14.33;8.33;;;-0.80;99.90;;;;;;5075840;28;20051;-74
2022/12/14 11:53:20;;;;;;;11.87;7.10;;;-0.80;99.90;;;;;;5070905;28;20040;-74
2022/12/14 11:55:53;;;;;;;18.57;10.83;;;-0.80;99.90;;;;;;5070166;28;20044;-74
2022/12/14 11:58:25;;;;;;;14.90;7.53;;;-0.80;99.90;;;;;;5085608;28;20044;-74
2022/12/14 12:00:57;;;;;;;14.23;7.90;;;-0.80;99.90;;;;;;5085581;28;20032;-74
2022/12/14 12:03:31;;;;;;;14.13;5.70;;;-0.70;99.90;;;;;;5103392;28;20036;-74
2022/12/14 12:06:09;;;;;;;11.97;6.70;;;-0.70;99.90;;;;;;5086958;28;20501;-74
2022/12/14 12:08:38;;;;;;;14.30;6.87;;;-0.70;99.90;;;;;;5069889;28;20051;-75
2022/12/14 12:11:18;;;;;;;15.47;7.30;;;-0.60;99.90;;;;;;5087339;28;20051;-74
2022/12/14 12:13:49;;;;;;;11.57;6.20;;;-0.60;99.90;;;;;;5087873;28;20031;-74
2022/12/14 12:16:21;;;;;;;12.13;7.13;;;-0.60;99.90;;;;;;5068179;28;20048;-74
2022/12/14 12:19:16;;;;;;;9.57;5.87;;;-0.50;99.90;;;;;;5069056;28;20067;-74
2022/12/14 12:21:43;;;;;;;9.30;5.67;;;-0.50;99.90;;;;;;5085127;28;20044;-74
2022/12/14 12:24:25;;;;;;;13.70;7.27;;;-0.50;99.90;;;;;;5086153;28;20368;-75
2022/12/14 12:27:19;;;;;;;10.45;5.80;;;-0.50;99.90;;;;;;5083134;28;20032;-74
2022/12/14 12:30:07;;;;;;;11.00;6.63;;;-0.50;99.90;;;;;;5084950;28;20056;-75
2022/12/14 12:32:43;;;;;;;11.03;6.07;;;-0.50;99.90;;;;;;5087125;28;20039;-75
2022/12/14 12:35:17;;;;;;;8.43;4.33;;;-0.50;99.90;;;;;;5071592;28;20043;-74
2022/12/14 12:37:51;;;;;;;6.60;3.70;;;-0.50;99.90;;;;;;5102131;28;20024;-74
2022/12/14 12:40:26;;;;;;;7.67;4.47;;;-0.50;99.90;;;;;;5053416;28;20044;-75
2022/12/14 12:43:00;;;;;;;5.90;3.63;;;-0.50;99.90;;;;;;5070532;28;20031;-75
2022/12/14 12:45:42;;;;;;;8.37;4.57;;;-0.50;99.90;;;;;;5069861;28;20059;-74
2022/12/14 12:48:20;;;;;;;6.43;3.70;;;-0.50;99.90;;;;;;5067611;28;20044;-74
2022/12/14 12:50:54;;;;;;;8.57;4.30;;;-0.60;99.90;;;;;;5085968;28;20053;-75
2022/12/14 12:53:29;;;;;;;8.97;5.40;;;-0.60;99.90;;;;;;5087166;28;20040;-75
2022/12/14 12:56:25;;;;;;;9.60;6.00;;;-0.60;99.90;;;;;;5066782;28;20522;-74
2022/12/14 12:58:52;;;;;;;7.67;3.97;;;-0.70;99.90;;;;;;5037581;28;20134;-75
2022/12/14 13:01:42;;;;;;;7.67;4.03;;;-0.70;99.90;;;;;;5046123;28;20044;-74
2022/12/14 13:04:37;;;;;;;7.47;4.10;;;-0.70;99.90;;;;;;5082232;28;20032;-74
2022/12/14 13:07:31;;;;;;;7.90;4.60;;;-0.70;99.90;;;;;;5046616;28;20379;-74
2022/12/14 13:10:05;;;;;;;8.67;4.13;;;-0.70;99.90;;;;;;5066944;28;20051;-74
2022/12/14 13:12:43;;;;;;;10.00;4.60;;;-0.60;99.90;;;;;;5070017;28;20051;-76
2022/12/14 13:15:25;;;;;;;6.60;3.43;;;-0.60;99.90;;;;;;5085648;28;20036;-75
2022/12/14 13:18:04;;;;;;;;;;;-0.60;99.90;;;;;;5066670;28;20040;-74
2022/12/14 13:20:33;;;;;;;7.87;3.70;;;-0.60;99.90;;;;;;5068711;28;19927;-75
2022/12/14 13:23:02;;;;;;;7.00;4.30;;;-0.60;99.90;;;;;;5086376;28;20679;-74